createdAt,value
2023-02-14T00:00:08.976Z,0.43
2023-02-14T00:02:35.538Z,0.29
2023-02-14T00:05:02.053Z,0.25
2023-02-14T00:07:28.504Z,0.35
2023-02-14T00:09:55.065Z,0.24
2023-02-14T00:12:21.663Z,0.21
2023-02-14T00:15:06.637Z,0.27
2023-02-14T00:17:33.082Z,0.27
2023-02-14T00:20:00.222Z,0.21
2023-02-14T00:22:26.675Z,-0.16
2023-02-14T00:24:53.191Z,-0.13
2023-02-14T00:27:19.774Z,0.13
2023-02-14T00:29:46.196Z,0.01
2023-02-14T00:32:12.772Z,0.21
2023-02-14T00:34:40.688Z,0.15
2023-02-14T00:37:07.173Z,0.15
2023-02-14T00:39:35.639Z,0.20
2023-02-14T00:42:02.167Z,0.23
2023-02-14T00:44:28.654Z,0.00
2023-02-14T00:46:55.743Z,0.07
2023-02-14T00:49:22.371Z,0.10
2023-02-14T00:51:48.826Z,0.11
2023-02-14T00:54:15.495Z,0.09
2023-02-14T00:56:41.965Z,0.08
2023-02-14T00:59:08.632Z,-0.03
2023-02-14T01:01:35.227Z,0.00
2023-02-14T01:04:01.686Z,0.08
2023-02-14T01:06:28.313Z,0.10
2023-02-14T01:08:54.852Z,0.08
2023-02-14T01:11:23.278Z,0.09
2023-02-14T01:13:51.526Z,-0.01
2023-02-14T01:16:21.790Z,-0.02
2023-02-14T01:18:50.145Z,0.04
2023-02-14T01:21:28.914Z,-0.01
2023-02-14T01:23:57.740Z,0.03
2023-02-14T01:26:25.632Z,-0.04
2023-02-14T01:28:52.045Z,0.04
2023-02-14T01:31:21.975Z,0.05
2023-02-14T01:33:50.006Z,0.10
2023-02-14T01:36:25.051Z,0.10
2023-02-14T01:38:53.740Z,0.13
2023-02-14T01:41:21.098Z,0.27
2023-02-14T01:44:01.653Z,0.24
2023-02-14T01:46:30.914Z,0.29
2023-02-14T01:49:03.606Z,0.28
2023-02-14T01:51:31.867Z,0.16
2023-02-14T01:53:59.386Z,0.05
2023-02-14T01:56:34.310Z,0.11
2023-02-14T01:59:02.797Z,0.08
2023-02-14T02:01:30.329Z,0.08
2023-02-14T02:04:02.402Z,0.08
2023-02-14T02:06:40.219Z,0.00
2023-02-14T02:09:22.054Z,0.09
2023-02-14T02:11:48.921Z,0.08
2023-02-14T02:14:18.660Z,0.25
2023-02-14T02:16:51.128Z,0.19
2023-02-14T02:19:35.290Z,0.03
2023-02-14T02:22:04.966Z,0.02
2023-02-14T02:24:56.859Z,-0.09
2023-02-14T02:27:26.178Z,0.26
2023-02-14T02:30:01.854Z,0.36
2023-02-14T02:32:50.025Z,0.41
2023-02-14T02:35:34.782Z,0.41
2023-02-14T02:38:38.792Z,0.44
2023-02-14T02:41:15.716Z,0.35
2023-02-14T02:43:55.221Z,0.39
2023-02-14T02:46:49.986Z,0.32
2023-02-14T02:49:43.600Z,0.29
2023-02-14T02:53:08.417Z,0.40
2023-02-14T02:56:16.477Z,0.40
2023-02-14T02:58:47.916Z,0.35
2023-02-14T03:01:19.710Z,0.42
2023-02-14T03:04:07.933Z,0.10
2023-02-14T03:06:34.833Z,0.23
2023-02-14T03:09:19.622Z,0.22
2023-02-14T03:12:15.248Z,0.18
2023-02-14T03:15:02.614Z,-0.02
2023-02-14T03:17:49.593Z,0.08
2023-02-14T03:20:57.128Z,0.07
2023-02-14T03:23:29.397Z,0.22
2023-02-14T03:26:18.102Z,0.00
2023-02-14T03:28:59.391Z,0.23
2023-02-14T03:31:41.948Z,0.16
2023-02-14T03:34:32.420Z,-0.02
2023-02-14T03:37:10.583Z,0.05
2023-02-14T03:39:59.022Z,0.19
2023-02-14T03:42:31.728Z,0.22
2023-02-14T03:45:00.864Z,0.12
2023-02-14T03:47:32.595Z,0.14
2023-02-14T03:50:10.845Z,0.17
2023-02-14T03:52:39.937Z,0.31
2023-02-14T03:55:15.779Z,0.38
2023-02-14T03:57:48.211Z,0.16
2023-02-14T04:00:16.082Z,-0.06
2023-02-14T04:02:47.245Z,0.36
2023-02-14T04:05:21.947Z,0.07
2023-02-14T04:07:51.654Z,0.02
2023-02-14T04:10:19.404Z,0.03
2023-02-14T04:12:46.298Z,-0.22
2023-02-14T04:15:14.070Z,-0.36
2023-02-14T04:17:58.903Z,-0.27
2023-02-14T04:20:26.134Z,-0.07
2023-02-14T04:22:52.963Z,-0.12
2023-02-14T04:25:21.567Z,-0.08
2023-02-14T04:27:48.170Z,0.15
2023-02-14T04:30:15.290Z,0.31
2023-02-14T04:32:41.753Z,0.26
2023-02-14T04:35:08.140Z,-0.03
2023-02-14T04:37:34.558Z,0.17
2023-02-14T04:40:01.020Z,-0.15
2023-02-14T04:42:27.581Z,-0.45
2023-02-14T04:44:54.058Z,-0.23
2023-02-14T04:47:20.520Z,0.05
2023-02-14T04:49:46.928Z,0.38
2023-02-14T04:52:13.532Z,0.19
2023-02-14T04:54:39.927Z,0.34
2023-02-14T04:57:06.331Z,0.28
2023-02-14T04:59:32.737Z,0.23
2023-02-14T05:01:59.601Z,-0.10
2023-02-14T05:04:26.169Z,0.11
2023-02-14T05:06:52.671Z,0.21
2023-02-14T05:09:19.685Z,0.18
2023-02-14T05:11:46.428Z,0.12
2023-02-14T05:14:13.810Z,0.14
2023-02-14T05:16:40.833Z,-0.18
2023-02-14T05:19:07.581Z,0.03
2023-02-14T05:21:34.140Z,0.03
2023-02-14T05:24:01.157Z,0.10
2023-02-14T05:26:28.491Z,-0.13
2023-02-14T05:28:54.952Z,-0.04
2023-02-14T05:31:21.513Z,-0.21
2023-02-14T05:33:48.300Z,-0.10
2023-02-14T05:36:14.997Z,-0.30
2023-02-14T05:38:41.404Z,-0.08
2023-02-14T05:41:07.863Z,-0.07
2023-02-14T05:43:34.379Z,-0.24
2023-02-14T05:46:00.981Z,-0.36
2023-02-14T05:48:27.908Z,-0.25
2023-02-14T05:50:56.709Z,-0.18
2023-02-14T05:53:23.424Z,-0.21
2023-02-14T05:55:49.964Z,-0.09
2023-02-14T05:58:16.421Z,-0.49
2023-02-14T06:00:43.321Z,-0.54
2023-02-14T06:03:10.191Z,-0.31
2023-02-14T06:05:37.035Z,-0.13
2023-02-14T06:08:03.695Z,-0.06
2023-02-14T06:10:30.185Z,-0.23
2023-02-14T06:12:56.771Z,-0.23
2023-02-14T06:15:24.050Z,-0.04
2023-02-14T06:17:56.389Z,-0.06
2023-02-14T06:20:24.263Z,-0.09
2023-02-14T06:22:51.403Z,-0.09
2023-02-14T06:25:17.871Z,-0.12
2023-02-14T06:27:44.401Z,-0.11
2023-02-14T06:30:11.761Z,0.07
2023-02-14T06:32:38.573Z,0.13
2023-02-14T06:35:06.069Z,0.15
2023-02-14T06:37:32.913Z,0.26
2023-02-14T06:39:59.316Z,0.11
2023-02-14T06:42:25.960Z,-0.04
2023-02-14T06:44:52.384Z,0.11
2023-02-14T06:47:19.354Z,0.30
2023-02-14T06:49:45.787Z,0.07
2023-02-14T06:52:12.263Z,0.24
2023-02-14T06:54:38.842Z,0.39
2023-02-14T06:57:05.272Z,0.47
2023-02-14T06:59:31.718Z,0.31
2023-02-14T07:01:58.300Z,0.42
2023-02-14T07:04:24.715Z,0.29
2023-02-14T07:06:51.205Z,0.27
2023-02-14T07:09:18.387Z,0.49
2023-02-14T07:11:45.534Z,0.70
2023-02-14T07:14:13.152Z,0.47
2023-02-14T07:16:40.216Z,0.66
2023-02-14T07:19:06.634Z,0.59
2023-02-14T07:21:33.094Z,0.57
2023-02-14T07:23:59.489Z,0.54
2023-02-14T07:26:26.061Z,0.56
2023-02-14T07:28:52.758Z,0.38
2023-02-14T07:31:21.044Z,0.35
2023-02-14T07:33:47.958Z,0.70
2023-02-14T07:36:14.408Z,0.72
2023-02-14T07:38:41.013Z,0.63
2023-02-14T07:41:07.491Z,0.68
2023-02-14T07:43:36.847Z,0.55
2023-02-14T07:46:03.522Z,0.66
2023-02-14T07:48:33.164Z,0.69
2023-02-14T07:51:01.362Z,0.76
2023-02-14T07:53:28.002Z,0.69
2023-02-14T07:55:54.540Z,0.78
2023-02-14T07:58:21.382Z,0.64
2023-02-14T08:00:47.832Z,0.53
2023-02-14T08:03:14.577Z,0.48
2023-02-14T08:05:41.106Z,0.68
2023-02-14T08:08:07.575Z,0.82
2023-02-14T08:10:34.149Z,0.56
2023-02-14T08:13:00.669Z,0.86
2023-02-14T08:15:53.580Z,0.65
2023-02-14T08:18:23.092Z,1.07
2023-02-14T08:20:52.174Z,1.14
2023-02-14T08:23:20.437Z,0.93
2023-02-14T08:25:48.989Z,1.02
2023-02-14T08:28:15.564Z,1.17
2023-02-14T08:30:44.266Z,0.91
2023-02-14T08:33:11.595Z,1.53
2023-02-14T08:35:38.389Z,1.62
2023-02-14T08:38:05.267Z,1.58
2023-02-14T08:40:33.040Z,1.58
2023-02-14T08:42:59.476Z,1.48
2023-02-14T08:45:25.901Z,1.43
2023-02-14T08:47:52.374Z,1.68
2023-02-14T08:50:19.450Z,1.84
2023-02-14T08:52:46.034Z,1.85
2023-02-14T08:55:13.823Z,1.79
2023-02-14T08:57:40.774Z,1.75
2023-02-14T09:00:08.191Z,2.07
2023-02-14T09:02:34.744Z,2.18
2023-02-14T09:05:01.751Z,2.15
2023-02-14T09:07:28.320Z,1.82
2023-02-14T09:09:54.824Z,2.09
2023-02-14T09:12:21.582Z,2.06
2023-02-14T09:14:48.025Z,2.20
2023-02-14T09:17:15.482Z,2.38
2023-02-14T09:19:42.585Z,1.95
2023-02-14T09:22:10.852Z,2.31
2023-02-14T09:24:38.734Z,2.36
2023-02-14T09:27:06.081Z,2.09
2023-02-14T09:29:33.167Z,1.96
2023-02-14T09:32:01.267Z,2.15
2023-02-14T09:34:28.774Z,2.36
2023-02-14T09:37:13.701Z,2.58
2023-02-14T09:39:40.270Z,3.05
2023-02-14T09:42:36.868Z,2.29
2023-02-14T09:45:12.619Z,2.66
2023-02-14T09:47:46.080Z,2.91
2023-02-14T09:50:28.030Z,2.93
2023-02-14T09:53:00.775Z,3.23
2023-02-14T09:55:36.033Z,3.51
2023-02-14T09:58:17.638Z,3.61
2023-02-14T10:00:57.366Z,3.90
2023-02-14T10:03:34.389Z,3.68
2023-02-14T10:06:26.955Z,3.67
2023-02-14T10:09:00.483Z,3.94
2023-02-14T10:11:27.953Z,3.91
2023-02-14T10:14:13.439Z,4.11
2023-02-14T10:16:50.882Z,4.30
2023-02-14T10:19:23.867Z,4.10
2023-02-14T10:22:06.224Z,3.93
2023-02-14T10:24:41.971Z,4.49
2023-02-14T10:27:25.690Z,4.57
2023-02-14T10:29:52.175Z,4.80
2023-02-14T10:32:26.928Z,5.16
2023-02-14T10:34:56.886Z,5.15
2023-02-14T10:37:39.862Z,5.37
2023-02-14T10:40:32.069Z,5.64
2023-02-14T10:43:18.024Z,5.47
2023-02-14T10:46:02.166Z,5.51
2023-02-14T10:48:43.829Z,5.53
2023-02-14T10:51:21.679Z,5.43
2023-02-14T10:53:54.379Z,6.14
2023-02-14T10:56:29.209Z,5.81
2023-02-14T10:58:57.889Z,6.38
2023-02-14T11:01:25.262Z,6.31
2023-02-14T11:04:03.692Z,7.02
2023-02-14T11:06:31.437Z,7.79
2023-02-14T11:08:58.820Z,7.73
2023-02-14T11:11:38.588Z,9.13
2023-02-14T11:17:29.192Z,8.18
2023-02-14T11:20:06.376Z,9.84
2023-02-14T11:22:35.112Z,10.20
2023-02-14T11:25:19.586Z,10.64
2023-02-14T11:27:50.063Z,10.89
2023-02-14T11:30:22.680Z,10.90
2023-02-14T11:32:56.314Z,10.62
2023-02-14T11:35:27.647Z,10.85
2023-02-14T11:37:56.080Z,11.50
2023-02-14T11:40:29.882Z,11.99
2023-02-14T11:43:13.909Z,12.72
2023-02-14T11:45:43.614Z,12.23
2023-02-14T11:48:39.447Z,12.92
2023-02-14T11:53:47.418Z,13.05
2023-02-14T11:56:16.680Z,13.67
2023-02-14T11:58:51.930Z,13.04
2023-02-14T12:01:38.689Z,12.97
2023-02-14T12:04:13.853Z,12.77
2023-02-14T12:06:40.392Z,13.04
2023-02-14T12:09:22.975Z,12.65
2023-02-14T12:12:01.609Z,13.08
2023-02-14T12:14:30.595Z,14.57
2023-02-14T12:17:26.916Z,15.12
2023-02-14T12:20:16.739Z,14.40
2023-02-14T12:23:11.959Z,14.66
2023-02-14T12:25:49.915Z,13.73
2023-02-14T12:28:22.894Z,15.23
2023-02-14T12:30:49.605Z,15.89
2023-02-14T12:33:20.918Z,15.93
2023-02-14T12:35:59.261Z,15.76
2023-02-14T12:38:42.337Z,15.46
2023-02-14T12:41:30.650Z,16.64
2023-02-14T12:44:01.130Z,16.11
2023-02-14T12:46:53.963Z,16.02
2023-02-14T12:49:32.316Z,17.51
2023-02-14T12:52:28.874Z,14.78
2023-02-14T12:55:23.141Z,15.01
2023-02-14T12:57:56.881Z,14.17
2023-02-14T13:00:50.867Z,15.45
2023-02-14T13:03:26.130Z,16.61
2023-02-14T13:06:28.997Z,12.95
2023-02-14T13:09:23.508Z,14.32
2023-02-14T13:11:59.800Z,13.90
2023-02-14T13:14:38.511Z,14.13
2023-02-14T13:17:27.411Z,12.82
2023-02-14T13:20:06.819Z,13.97
2023-02-14T13:22:35.745Z,15.44
2023-02-14T13:25:13.458Z,14.28
2023-02-14T13:27:40.779Z,13.92
2023-02-14T13:30:19.293Z,13.77
2023-02-14T13:32:48.807Z,12.78
2023-02-14T13:35:17.543Z,13.60
2023-02-14T13:37:53.516Z,14.00
2023-02-14T13:40:25.254Z,12.74
2023-02-14T13:43:01.905Z,13.54
2023-02-14T13:45:40.567Z,13.80
2023-02-14T13:48:29.382Z,11.00
2023-02-14T13:51:01.511Z,10.73
2023-02-14T13:53:40.372Z,11.39
2023-02-14T13:56:12.743Z,10.80
2023-02-14T13:59:05.484Z,10.26
2023-02-14T14:01:36.582Z,10.74
2023-02-14T14:04:23.643Z,11.19
2023-02-14T14:07:10.844Z,11.94
2023-02-14T14:09:43.272Z,10.78
2023-02-14T14:12:28.061Z,10.07
2023-02-14T14:15:27.002Z,10.42
2023-02-14T14:18:22.237Z,10.13
2023-02-14T14:20:48.967Z,10.60
2023-02-14T14:23:44.854Z,11.21
2023-02-14T14:26:42.998Z,10.78
2023-02-14T14:29:16.272Z,11.04
2023-02-14T14:31:43.071Z,10.08
2023-02-14T14:34:17.928Z,10.73
2023-02-14T14:36:45.469Z,10.89
2023-02-14T14:39:13.523Z,11.20
2023-02-14T14:41:41.155Z,10.54
2023-02-14T14:44:08.076Z,10.91
2023-02-14T14:46:34.652Z,11.03
2023-02-14T14:49:02.378Z,11.16
2023-02-14T14:51:32.111Z,10.58
2023-02-14T14:54:01.317Z,10.60
2023-02-14T14:56:51.141Z,10.48
2023-02-14T14:59:28.630Z,10.29
2023-02-14T15:01:55.575Z,10.64
2023-02-14T15:04:35.505Z,10.22
2023-02-14T15:07:24.004Z,10.25
2023-02-14T15:09:51.268Z,10.25
2023-02-14T15:12:41.866Z,9.61
2023-02-14T15:15:12.381Z,9.73
2023-02-14T15:17:41.320Z,9.92
2023-02-14T15:20:30.156Z,9.65
2023-02-14T15:22:56.615Z,9.67
2023-02-14T15:25:31.335Z,9.52
2023-02-14T15:27:57.990Z,9.59
2023-02-14T15:30:37.777Z,9.37
2023-02-14T15:33:15.534Z,9.09
2023-02-14T15:35:42.478Z,9.20
2023-02-14T15:38:11.949Z,8.98
2023-02-14T15:40:40.320Z,8.88
2023-02-14T15:43:18.709Z,8.68
2023-02-14T15:45:53.204Z,8.75
2023-02-14T15:48:28.011Z,8.75
2023-02-14T15:50:58.903Z,8.64
2023-02-14T15:53:34.770Z,8.51
2023-02-14T15:56:09.137Z,8.33
2023-02-14T15:58:37.986Z,8.19
2023-02-14T16:01:06.286Z,8.00
2023-02-14T16:03:39.581Z,7.93
2023-02-14T16:06:06.375Z,7.82
2023-02-14T16:08:41.153Z,7.98
2023-02-14T16:11:26.689Z,7.80
2023-02-14T16:13:53.537Z,7.69
2023-02-14T16:16:20.064Z,7.70
2023-02-14T16:18:49.990Z,7.77
2023-02-14T16:21:28.351Z,7.76
2023-02-14T16:24:06.963Z,7.55
2023-02-14T16:26:35.066Z,7.40
2023-02-14T16:29:05.781Z,7.43
2023-02-14T16:31:33.711Z,7.17
2023-02-14T16:34:00.372Z,7.24
2023-02-14T16:36:29.597Z,7.19
2023-02-14T16:38:57.156Z,7.09
2023-02-14T16:41:28.467Z,7.04
2023-02-14T16:43:56.127Z,6.73
2023-02-14T16:46:29.061Z,6.58
2023-02-14T16:48:56.073Z,6.42
2023-02-14T16:51:34.023Z,6.31
2023-02-14T16:54:05.180Z,6.08
2023-02-14T16:56:48.866Z,5.94
2023-02-14T16:59:15.290Z,5.84
2023-02-14T17:01:41.869Z,5.74
2023-02-14T17:04:08.505Z,5.95
2023-02-14T17:06:37.809Z,5.83
2023-02-14T17:09:08.681Z,5.66
2023-02-14T17:11:39.994Z,5.53
2023-02-14T17:14:07.992Z,5.49
2023-02-14T17:16:34.487Z,5.45
2023-02-14T17:19:05.508Z,5.15
2023-02-14T17:21:33.388Z,5.09
2023-02-14T17:23:59.878Z,4.92
2023-02-14T17:26:26.478Z,4.80
2023-02-14T17:28:52.910Z,4.66
2023-02-14T17:31:20.460Z,4.62
2023-02-14T17:33:48.524Z,4.84
2023-02-14T17:36:15.165Z,4.51
2023-02-14T17:38:45.518Z,4.53
2023-02-14T17:41:16.924Z,4.56
2023-02-14T17:43:46.409Z,4.56
2023-02-14T17:46:16.365Z,4.49
2023-02-14T17:48:45.471Z,4.36
2023-02-14T17:51:13.379Z,4.35
2023-02-14T17:53:41.698Z,4.55
2023-02-14T17:56:18.027Z,4.36
2023-02-14T17:58:47.836Z,4.20
2023-02-14T18:01:15.789Z,4.23
2023-02-14T18:03:42.534Z,4.19
2023-02-14T18:06:11.247Z,4.04
2023-02-14T18:08:41.200Z,3.90
2023-02-14T18:11:10.685Z,3.99
2023-02-14T18:13:37.804Z,3.97
2023-02-14T18:16:10.491Z,3.84
2023-02-14T18:18:47.636Z,4.01
2023-02-14T18:21:16.729Z,4.12
2023-02-14T18:23:43.346Z,3.99
2023-02-14T18:26:14.931Z,3.72
2023-02-14T18:28:41.714Z,3.53
2023-02-14T18:31:16.948Z,3.35
2023-02-14T18:33:45.721Z,3.09
2023-02-14T18:36:14.781Z,3.02
2023-02-14T18:38:43.347Z,3.21
2023-02-14T18:41:13.366Z,3.20
2023-02-14T18:43:43.580Z,3.31
2023-02-14T18:46:31.461Z,3.31
2023-02-14T18:48:58.350Z,3.19
2023-02-14T18:51:27.818Z,2.69
2023-02-14T18:53:56.184Z,2.87
2023-02-14T18:56:26.518Z,2.84
2023-02-14T18:58:57.437Z,2.76
2023-02-14T19:01:29.150Z,2.69
2023-02-14T19:03:56.646Z,2.13
2023-02-14T19:06:24.001Z,2.00
2023-02-14T19:08:51.100Z,2.02
2023-02-14T19:11:21.240Z,1.94
2023-02-14T19:13:56.130Z,1.89
2023-02-14T19:16:28.333Z,1.88
2023-02-14T19:18:55.145Z,1.76
2023-02-14T19:21:27.743Z,2.04
2023-02-14T19:23:56.324Z,2.23
2023-02-14T19:26:25.929Z,2.21
2023-02-14T19:28:58.156Z,2.04
2023-02-14T19:31:26.019Z,2.06
2023-02-14T19:33:53.223Z,2.14
2023-02-14T19:36:21.610Z,2.02
2023-02-14T19:38:51.200Z,2.00
2023-02-14T19:41:21.146Z,2.17
2023-02-14T19:43:48.887Z,2.09
2023-02-14T19:46:17.342Z,1.99
2023-02-14T19:48:47.450Z,2.03
2023-02-14T19:51:22.412Z,2.01
2023-02-14T19:53:49.804Z,2.07
2023-02-14T19:56:21.534Z,2.15
2023-02-14T19:58:50.397Z,2.18
2023-02-14T20:01:33.113Z,2.06
2023-02-14T20:03:59.626Z,2.32
2023-02-14T20:06:27.459Z,2.14
2023-02-14T20:08:53.929Z,2.25
2023-02-14T20:11:30.974Z,2.10
2023-02-14T20:13:58.512Z,2.32
2023-02-14T20:16:26.935Z,2.39
2023-02-14T20:18:53.962Z,2.24
2023-02-14T20:21:24.571Z,2.29
2023-02-14T20:23:52.054Z,2.32
2023-02-14T20:26:18.657Z,2.46
2023-02-14T20:28:45.138Z,2.29
2023-02-14T20:31:14.638Z,2.34
2023-02-14T20:33:41.994Z,2.33
2023-02-14T20:36:08.717Z,2.29
2023-02-14T20:38:35.500Z,2.44
2023-02-14T20:41:06.221Z,2.37
2023-02-14T20:43:33.129Z,2.38
2023-02-14T20:46:00.507Z,2.23
2023-02-14T20:48:27.693Z,2.34
2023-02-14T20:50:54.099Z,2.19
2023-02-14T20:53:21.159Z,2.36
2023-02-14T20:55:51.719Z,2.38
2023-02-14T20:58:21.213Z,2.28
2023-02-14T21:00:50.507Z,2.38
2023-02-14T21:03:16.950Z,2.37
2023-02-14T21:05:43.476Z,2.20
2023-02-14T21:08:09.871Z,2.30
2023-02-14T21:10:36.419Z,2.29
2023-02-14T21:13:02.826Z,2.26
2023-02-14T21:15:29.316Z,2.14
2023-02-14T21:17:55.760Z,2.10
2023-02-14T21:20:22.996Z,2.05
2023-02-14T21:22:49.477Z,1.97
2023-02-14T21:25:16.030Z,2.07
2023-02-14T21:27:42.658Z,2.16
2023-02-14T21:30:09.570Z,2.09
2023-02-14T21:32:36.007Z,2.12
2023-02-14T21:35:02.454Z,1.84
2023-02-14T21:37:28.913Z,1.94
2023-02-14T21:39:55.358Z,1.91
2023-02-14T21:42:21.950Z,2.03
2023-02-14T21:45:06.828Z,1.83
2023-02-14T21:47:37.737Z,1.80
2023-02-14T21:50:23.125Z,1.63
2023-02-14T21:52:49.563Z,1.72
2023-02-14T21:55:16.394Z,1.61
2023-02-14T21:57:42.784Z,1.49
2023-02-14T22:00:09.672Z,1.32
2023-02-14T22:02:38.781Z,1.21
2023-02-14T22:05:07.710Z,1.33
2023-02-14T22:07:34.978Z,1.30
2023-02-14T22:10:02.449Z,1.28
2023-02-14T22:12:29.774Z,1.30
2023-02-14T22:14:56.867Z,1.43
2023-02-14T22:17:23.293Z,1.39
2023-02-14T22:19:50.551Z,1.33
2023-02-14T22:22:17.065Z,1.31
2023-02-14T22:24:43.515Z,1.24
2023-02-14T22:27:09.991Z,1.47
2023-02-14T22:29:37.103Z,1.35
2023-02-14T22:32:03.806Z,1.23
2023-02-14T22:34:30.473Z,1.39
2023-02-14T22:36:57.068Z,1.23
2023-02-14T22:39:23.544Z,1.32
2023-02-14T22:41:50.013Z,1.14
2023-02-14T22:44:17.043Z,1.12
2023-02-14T22:46:43.554Z,1.06
2023-02-14T22:49:10.136Z,1.20
2023-02-14T22:51:41.580Z,1.10
2023-02-14T22:54:14.844Z,1.18
2023-02-14T22:56:44.120Z,1.22
2023-02-14T22:59:19.636Z,1.17
2023-02-14T23:01:46.423Z,1.11
2023-02-14T23:04:14.768Z,1.06
2023-02-14T23:06:41.271Z,1.04
2023-02-14T23:09:09.941Z,0.94
2023-02-14T23:11:38.555Z,1.00
2023-02-14T23:14:24.790Z,0.71
2023-02-14T23:17:09.948Z,0.81
2023-02-14T23:19:55.936Z,0.79
2023-02-14T23:22:23.619Z,0.82
2023-02-14T23:24:53.254Z,0.86
2023-02-14T23:27:23.401Z,0.83
2023-02-14T23:29:49.934Z,0.79
2023-02-14T23:32:16.510Z,0.68
2023-02-14T23:34:44.327Z,0.69
2023-02-14T23:37:12.165Z,0.69
2023-02-14T23:39:38.572Z,0.89
2023-02-14T23:42:10.815Z,0.77
2023-02-14T23:44:37.631Z,0.85
2023-02-14T23:47:06.882Z,0.66
2023-02-14T23:49:34.673Z,0.85
2023-02-14T23:52:02.088Z,0.57
